createdAt,value
2019-04-20T00:01:57.238Z,50.50
2019-04-20T00:04:31.006Z,50.70
2019-04-20T00:06:59.152Z,50.90
2019-04-20T00:09:31.866Z,51.30
2019-04-20T00:12:08.889Z,51.50
2019-04-20T00:14:34.502Z,51.90
2019-04-20T00:17:03.053Z,52.20
2019-04-20T00:19:38.924Z,53.10
2019-04-20T00:22:24.577Z,52.70
2019-04-20T00:25:00.444Z,52.90
2019-04-20T00:27:42.778Z,53.20
2019-04-20T00:30:22.784Z,53.40
2019-04-20T00:32:41.274Z,53.70
2019-04-20T00:34:58.252Z,54.10
2019-04-20T00:37:27.797Z,54.50
2019-04-20T00:39:57.757Z,55.00
2019-04-20T00:42:33.888Z,55.40
2019-04-20T00:45:05.658Z,55.80
2019-04-20T00:47:37.133Z,55.90
2019-04-20T00:50:22.870Z,56.00
2019-04-20T00:52:47.115Z,56.00
2019-04-20T00:55:02.595Z,56.10
2019-04-20T00:57:41.768Z,56.40
2019-04-20T01:00:24.307Z,56.60
2019-04-20T01:02:45.438Z,57.00
2019-04-20T01:05:39.407Z,57.80
2019-04-20T01:08:12.919Z,58.20
2019-04-20T01:10:49.372Z,58.60
2019-04-20T01:13:19.821Z,59.10
2019-04-20T01:15:51.642Z,59.50
2019-04-20T01:18:17.078Z,60.00
2019-04-20T01:20:47.347Z,60.60
2019-04-20T01:23:20.722Z,61.20
2019-04-20T01:25:55.839Z,61.90
2019-04-20T01:28:37.300Z,62.20
2019-04-20T01:31:06.198Z,62.90
2019-04-20T01:33:31.808Z,63.20
2019-04-20T01:36:09.051Z,63.50
2019-04-20T01:38:41.854Z,63.90
2019-04-20T01:40:55.111Z,64.50
2019-04-20T01:43:24.776Z,65.10
2019-04-20T01:46:01.422Z,65.40
2019-04-20T01:48:28.663Z,65.90
2019-04-20T01:51:06.289Z,66.60
2019-04-20T01:53:44.091Z,67.10
2019-04-20T01:56:17.109Z,67.60
2019-04-20T01:58:53.010Z,68.00
2019-04-20T02:01:28.097Z,68.50
2019-04-20T02:03:58.728Z,68.80
2019-04-20T02:06:30.447Z,69.20
2019-04-20T02:09:06.487Z,69.60
2019-04-20T02:11:38.364Z,69.80
2019-04-20T02:14:07.441Z,70.00
2019-04-20T02:16:40.805Z,70.40
2019-04-20T02:19:25.478Z,70.60
2019-04-20T02:21:55.683Z,71.10
2019-04-20T02:24:11.345Z,71.30
2019-04-20T02:26:41.001Z,71.70
2019-04-20T02:29:37.443Z,72.00
2019-04-20T02:32:17.176Z,72.40
2019-04-20T02:34:59.884Z,72.80
2019-04-20T02:37:49.368Z,73.00
2019-04-20T02:40:09.134Z,73.30
2019-04-20T02:42:44.592Z,73.80
2019-04-20T02:45:18.713Z,74.00
2019-04-20T02:50:15.254Z,74.40
2019-04-20T02:55:14.775Z,74.80
2019-04-20T03:00:12.742Z,75.70
2019-04-20T03:02:31.416Z,76.00
2019-04-20T03:05:00.055Z,76.20
2019-04-20T03:07:31.512Z,76.60
2019-04-20T03:10:11.043Z,77.10
2019-04-20T03:12:43.041Z,77.60
2019-04-20T03:15:13.892Z,78.30
2019-04-20T03:17:51.168Z,78.70
2019-04-20T03:20:21.181Z,79.20
2019-04-20T03:23:20.061Z,79.60
2019-04-20T03:25:43.097Z,80.20
2019-04-20T03:28:14.249Z,80.60
2019-04-20T03:33:31.021Z,81.50
2019-04-20T03:35:58.616Z,81.80
2019-04-20T03:38:19.844Z,82.40
2019-04-20T03:40:46.492Z,82.90
2019-04-20T03:43:03.833Z,83.40
2019-04-20T03:45:42.682Z,83.70
2019-04-20T03:48:16.081Z,84.20
2019-04-20T03:50:56.649Z,84.60
2019-04-20T03:53:27.776Z,84.90
2019-04-20T03:56:11.822Z,85.40
2019-04-20T03:58:45.922Z,85.70
2019-04-20T04:01:55.602Z,86.30
2019-04-20T04:04:10.735Z,86.50
2019-04-20T04:06:32.823Z,86.70
2019-04-20T04:09:02.748Z,87.00
2019-04-20T04:11:38.162Z,87.10
2019-04-20T04:13:52.530Z,87.30
2019-04-20T04:16:23.814Z,87.60
2019-04-20T04:19:01.459Z,87.80
2019-04-20T04:21:41.197Z,88.10
2019-04-20T04:24:11.968Z,88.30
2019-04-20T04:26:38.998Z,88.50
2019-04-20T04:29:21.391Z,88.70
2019-04-20T04:32:00.334Z,89.00
2019-04-20T04:34:20.680Z,89.10
2019-04-20T04:36:56.171Z,89.10
2019-04-20T04:39:26.308Z,89.40
2019-04-20T04:42:04.992Z,89.50
2019-04-20T04:44:19.255Z,89.70
2019-04-20T04:46:44.604Z,89.60
2019-04-20T04:49:17.241Z,89.70
2019-04-20T04:51:46.747Z,89.80
2019-04-20T04:54:16.356Z,89.90
2019-04-20T04:56:40.382Z,90.00
2019-04-20T04:59:10.694Z,89.80
2019-04-20T05:01:40.501Z,89.80
2019-04-20T05:04:32.699Z,90.00
2019-04-20T05:06:59.452Z,90.00
2019-04-20T05:09:15.363Z,90.00
2019-04-20T05:11:44.759Z,90.00
2019-04-20T05:14:21.608Z,90.00
2019-04-20T05:17:04.234Z,90.00
2019-04-20T05:19:36.663Z,90.00
2019-04-20T05:22:11.090Z,89.80
2019-04-20T05:24:48.449Z,90.00
2019-04-20T05:27:37.571Z,90.00
2019-04-20T05:29:44.677Z,90.00
2019-04-20T05:32:18.780Z,90.00
2019-04-20T05:35:12.160Z,89.90
2019-04-20T05:37:51.421Z,89.70
2019-04-20T05:40:10.452Z,89.50
2019-04-20T05:42:42.925Z,89.40
2019-04-20T05:45:11.285Z,89.30
2019-04-20T05:47:43.189Z,89.10
2019-04-20T05:50:09.652Z,88.90
2019-04-20T05:52:56.289Z,88.90
2019-04-20T05:55:20.842Z,88.40
2019-04-20T05:57:50.744Z,88.10
2019-04-20T06:00:19.197Z,87.90
2019-04-20T06:02:52.501Z,87.50
2019-04-20T06:05:22.397Z,87.50
2019-04-20T06:07:54.953Z,87.30
2019-04-20T06:10:32.113Z,86.80
2019-04-20T06:13:00.247Z,86.10
2019-04-20T06:18:13.795Z,84.50
2019-04-20T06:20:50.239Z,85.00
2019-04-20T06:23:40.368Z,84.00
2019-04-20T06:26:19.421Z,83.50
2019-04-20T06:28:30.073Z,83.10
2019-04-20T06:31:10.738Z,82.10
2019-04-20T06:34:26.096Z,81.70
2019-04-20T06:36:53.533Z,81.40
2019-04-20T06:39:20.371Z,80.70
2019-04-20T06:44:30.438Z,80.00
2019-04-20T06:46:58.821Z,79.40
2019-04-20T06:49:30.238Z,77.80
2019-04-20T06:51:59.309Z,78.10
2019-04-20T06:54:38.019Z,77.70
2019-04-20T06:57:12.982Z,77.10
2019-04-20T06:59:43.124Z,76.30
2019-04-20T07:04:53.187Z,74.90
2019-04-20T07:07:30.888Z,74.20
2019-04-20T07:10:05.181Z,73.50
2019-04-20T07:12:17.023Z,72.90
2019-04-20T07:14:41.479Z,72.50
2019-04-20T07:19:56.101Z,71.20
2019-04-20T07:25:09.522Z,70.10
2019-04-20T07:27:45.118Z,69.30
2019-04-20T07:30:12.319Z,68.00
2019-04-20T07:32:48.384Z,67.10
2019-04-20T07:35:14.147Z,66.80
2019-04-20T07:38:10.056Z,66.30
2019-04-20T07:40:28.717Z,65.80
2019-04-20T07:42:52.652Z,65.30
2019-04-20T07:45:28.341Z,64.90
2019-04-20T07:47:58.123Z,64.10
2019-04-20T07:50:20.081Z,63.70
2019-04-20T07:52:43.868Z,63.20
2019-04-20T07:55:37.067Z,60.70
2019-04-20T07:57:50.058Z,60.70
2019-04-20T08:00:38.258Z,56.50
2019-04-20T08:03:26.454Z,54.90
2019-04-20T08:05:45.801Z,55.60
2019-04-20T08:08:22.936Z,56.70
2019-04-20T08:10:53.684Z,57.30
2019-04-20T08:13:32.071Z,58.00
2019-04-20T08:16:00.923Z,57.90
2019-04-20T08:18:51.334Z,58.00
2019-04-20T08:21:22.797Z,58.30
2019-04-20T08:23:52.143Z,57.80
2019-04-20T08:26:10.881Z,57.90
2019-04-20T08:28:55.232Z,58.20
2019-04-20T08:31:33.568Z,58.60
2019-04-20T08:34:31.313Z,59.00
2019-04-20T08:36:49.228Z,58.00
2019-04-20T08:41:45.266Z,57.50
2019-04-20T08:44:34.003Z,57.10
2019-04-20T08:47:00.292Z,57.00
2019-04-20T08:49:26.475Z,57.20
2019-04-20T08:51:55.619Z,56.90
2019-04-20T08:54:16.542Z,56.00
2019-04-20T08:56:39.350Z,56.10
2019-04-20T08:59:02.368Z,56.40
2019-04-20T09:01:35.767Z,56.20
2019-04-20T09:04:12.744Z,56.20
2019-04-20T09:06:50.722Z,55.70
2019-04-20T09:09:37.546Z,55.40
2019-04-20T09:12:05.255Z,54.50
2019-04-20T09:14:12.179Z,54.10
2019-04-20T09:16:47.944Z,53.80
2019-04-20T09:19:14.952Z,53.30
2019-04-20T09:21:53.062Z,52.30
2019-04-20T09:24:43.534Z,51.80
2019-04-20T09:27:04.610Z,50.70
2019-04-20T09:29:35.843Z,51.10
2019-04-20T09:32:20.892Z,51.90
2019-04-20T09:34:54.365Z,51.60
2019-04-20T09:37:44.441Z,50.80
2019-04-20T09:40:28.966Z,50.30
2019-04-20T09:42:41.184Z,50.90
2019-04-20T09:45:23.236Z,49.00
2019-04-20T09:47:48.231Z,48.90
2019-04-20T09:50:36.902Z,47.20
2019-04-20T09:53:02.392Z,45.70
2019-04-20T09:55:27.960Z,44.50
2019-04-20T09:58:01.081Z,44.60
2019-04-20T10:00:37.182Z,44.50
2019-04-20T10:02:54.678Z,44.00
2019-04-20T10:05:25.344Z,43.60
2019-04-20T10:07:59.900Z,41.90
2019-04-20T10:10:33.370Z,38.50
2019-04-20T10:12:58.375Z,38.50
2019-04-20T10:15:29.618Z,39.20
2019-04-20T10:17:59.564Z,40.00
2019-04-20T10:20:32.796Z,39.10
2019-04-20T10:23:00.607Z,39.20
2019-04-20T10:25:30.867Z,38.30
2019-04-20T10:28:01.577Z,37.30
2019-04-20T10:30:32.549Z,37.00
2019-04-20T10:33:01.982Z,36.50
2019-04-20T10:35:33.834Z,35.90
2019-04-20T10:38:05.428Z,35.70
2019-04-20T10:40:46.403Z,35.40
2019-04-20T10:43:06.217Z,35.10
2019-04-20T10:45:36.931Z,35.20
2019-04-20T10:48:06.639Z,34.50
2019-04-20T10:50:36.780Z,33.40
2019-04-20T10:53:07.963Z,33.00
2019-04-20T10:55:37.772Z,33.50
2019-04-20T10:58:07.462Z,33.50
2019-04-20T11:00:44.033Z,33.50
2019-04-20T11:03:15.963Z,33.90
2019-04-20T11:05:46.800Z,34.60
2019-04-20T11:08:17.489Z,34.40
2019-04-20T11:10:57.912Z,33.80
2019-04-20T11:13:19.307Z,33.70
2019-04-20T11:15:50.566Z,33.80
2019-04-20T11:18:20.187Z,33.70
2019-04-20T11:20:51.080Z,34.00
2019-04-20T11:23:20.536Z,34.30
2019-04-20T11:25:50.507Z,33.20
2019-04-20T11:28:20.134Z,33.10
2019-04-20T11:30:50.618Z,33.20
2019-04-20T11:33:20.339Z,32.70
2019-04-20T11:35:49.997Z,33.10
2019-04-20T11:38:19.788Z,32.60
2019-04-20T11:41:02.507Z,32.50
2019-04-20T11:43:21.832Z,32.10
2019-04-20T11:45:51.812Z,32.50
2019-04-20T11:48:35.259Z,32.50
2019-04-20T11:51:09.517Z,31.90
2019-04-20T11:53:40.360Z,31.90
2019-04-20T11:56:14.582Z,31.20
2019-04-20T11:58:42.862Z,31.10
2019-04-20T12:01:38.085Z,31.50
2019-04-20T12:04:16.726Z,30.00
2019-04-20T12:06:32.768Z,30.00
2019-04-20T12:09:05.088Z,30.00
2019-04-20T12:11:50.985Z,29.20
2019-04-20T12:14:07.272Z,29.80
2019-04-20T12:16:37.505Z,29.40
2019-04-20T12:19:08.441Z,30.00
2019-04-20T12:21:39.078Z,30.20
2019-04-20T12:24:09.959Z,30.00
2019-04-20T12:26:40.602Z,30.00
2019-04-20T12:29:10.138Z,29.40
2019-04-20T12:31:39.815Z,28.90
2019-04-20T12:34:10.470Z,28.60
2019-04-20T12:36:40.044Z,28.40
2019-04-20T12:39:13.319Z,27.60
2019-04-20T12:41:50.543Z,27.20
2019-04-20T12:44:15.558Z,26.70
2019-04-20T12:46:45.854Z,26.40
2019-04-20T12:49:15.837Z,26.00
2019-04-20T12:51:52.623Z,26.30
2019-04-20T12:54:16.628Z,26.20
2019-04-20T12:56:46.575Z,26.20
2019-04-20T12:59:16.219Z,26.30
2019-04-20T13:01:45.566Z,26.10
2019-04-20T13:04:16.179Z,26.00
2019-04-20T13:06:46.962Z,25.80
2019-04-20T13:09:18.655Z,25.60
2019-04-20T13:12:03.562Z,24.90
2019-04-20T13:14:42.224Z,24.30
2019-04-20T13:17:12.400Z,24.60
2019-04-20T13:19:41.835Z,25.10
2019-04-20T13:22:12.819Z,24.50
2019-04-20T13:24:43.148Z,23.80
2019-04-20T13:27:14.397Z,23.20
2019-04-20T13:29:47.436Z,23.00
2019-04-20T13:32:16.345Z,22.90
2019-04-20T13:34:46.586Z,23.10
2019-04-20T13:37:16.216Z,22.80
2019-04-20T13:39:46.782Z,22.50
2019-04-20T13:42:22.679Z,22.00
2019-04-20T13:44:48.779Z,21.90
2019-04-20T13:47:19.116Z,21.60
2019-04-20T13:49:49.241Z,21.70
2019-04-20T13:52:18.813Z,21.50
2019-04-20T13:54:48.474Z,21.40
2019-04-20T13:57:23.954Z,20.70
2019-04-20T14:00:02.229Z,20.40
2019-04-20T14:02:51.007Z,20.30
2019-04-20T14:05:31.259Z,20.40
2019-04-20T14:08:05.237Z,20.20
2019-04-20T14:10:35.427Z,19.70
2019-04-20T14:13:12.171Z,19.30
2019-04-20T14:15:38.388Z,19.60
2019-04-20T14:18:09.322Z,18.50
2019-04-20T14:20:38.654Z,18.40
2019-04-20T14:23:09.370Z,18.00
2019-04-20T14:25:38.917Z,17.60
2019-04-20T14:28:09.078Z,17.00
2019-04-20T14:30:40.217Z,17.00
2019-04-20T14:33:10.611Z,17.00
2019-04-20T14:35:40.887Z,16.70
2019-04-20T14:38:10.494Z,16.40
2019-04-20T14:40:42.173Z,16.30
2019-04-20T14:43:12.912Z,15.40
2019-04-20T14:45:42.875Z,14.60
2019-04-20T14:48:14.507Z,14.50
2019-04-20T14:50:43.962Z,13.90
2019-04-20T14:53:13.760Z,13.50
2019-04-20T14:55:43.710Z,13.40
2019-04-20T14:58:33.447Z,13.50
2019-04-20T15:01:06.767Z,13.70
2019-04-20T15:03:39.182Z,14.00
2019-04-20T15:06:09.717Z,13.70
2019-04-20T15:08:40.673Z,13.20
2019-04-20T15:11:10.788Z,13.00
2019-04-20T15:13:40.625Z,13.30
2019-04-20T15:16:10.867Z,13.40
2019-04-20T15:18:58.120Z,14.60
2019-04-20T15:21:33.465Z,16.20
2019-04-20T15:24:03.722Z,17.90
2019-04-20T15:26:34.287Z,19.10
2019-04-20T15:29:04.414Z,19.10
2019-04-20T15:31:34.376Z,19.40
2019-04-20T15:34:06.915Z,19.70
2019-04-20T15:36:36.539Z,19.90
2019-04-20T15:39:09.381Z,19.80
2019-04-20T15:41:39.595Z,20.10
2019-04-20T15:44:09.293Z,20.20
2019-04-20T15:46:39.954Z,20.30
2019-04-20T15:49:10.283Z,20.20
2019-04-20T15:51:39.902Z,20.50
2019-04-20T15:54:11.957Z,20.80
2019-04-20T15:57:14.186Z,20.40
2019-04-20T15:59:38.155Z,20.20
2019-04-20T16:02:13.604Z,20.60
2019-04-20T16:05:04.082Z,21.40
2019-04-20T16:07:42.288Z,21.80
2019-04-20T16:10:09.417Z,22.40
2019-04-20T16:12:40.651Z,22.50
2019-04-20T16:15:11.357Z,22.60
2019-04-20T16:17:45.437Z,22.60
2019-04-20T16:20:16.935Z,22.60
2019-04-20T16:22:44.778Z,23.00
2019-04-20T16:25:23.586Z,23.40
2019-04-20T16:27:53.861Z,23.40
2019-04-20T16:30:23.397Z,23.20
2019-04-20T16:32:54.637Z,23.30
2019-04-20T16:35:24.606Z,23.50
2019-04-20T16:37:54.246Z,23.40
2019-04-20T16:40:27.325Z,23.50
2019-04-20T16:42:58.427Z,23.70
2019-04-20T16:45:29.953Z,23.90
2019-04-20T16:48:02.158Z,23.70
2019-04-20T16:50:33.050Z,23.70
2019-04-20T16:53:02.721Z,24.00
2019-04-20T16:55:34.858Z,24.20
2019-04-20T16:58:05.655Z,24.30
2019-04-20T17:00:37.622Z,24.50
2019-04-20T17:03:09.106Z,24.90
2019-04-20T17:05:39.089Z,25.50
2019-04-20T17:08:09.439Z,25.60
2019-04-20T17:10:39.516Z,26.10
2019-04-20T17:13:09.364Z,26.50
2019-04-20T17:15:39.361Z,26.70
2019-04-20T17:18:09.710Z,27.00
2019-04-20T17:20:41.015Z,27.30
2019-04-20T17:23:11.031Z,27.50
2019-04-20T17:25:41.815Z,27.70
2019-04-20T17:28:20.758Z,27.70
2019-04-20T17:31:03.656Z,27.90
2019-04-20T17:33:47.373Z,28.20
2019-04-20T17:36:12.446Z,28.30
2019-04-20T17:38:43.696Z,28.20
2019-04-20T17:41:29.230Z,28.30
2019-04-20T17:44:00.268Z,28.30
2019-04-20T17:46:24.681Z,28.50
2019-04-20T17:49:00.813Z,28.70
2019-04-20T17:51:34.420Z,29.00
2019-04-20T17:53:55.761Z,29.10
2019-04-20T17:56:20.340Z,29.30
2019-04-20T17:58:54.116Z,29.80
2019-04-20T18:01:34.805Z,30.00
2019-04-20T18:04:34.455Z,30.30
2019-04-20T18:06:50.208Z,30.70
2019-04-20T18:09:34.916Z,30.90
2019-04-20T18:11:45.265Z,31.10
2019-04-20T18:14:28.525Z,31.10
2019-04-20T18:17:16.999Z,31.40
2019-04-20T18:19:36.835Z,31.50
2019-04-20T18:22:11.920Z,31.60
2019-04-20T18:25:14.700Z,32.10
2019-04-20T18:27:48.575Z,32.30
2019-04-20T18:30:14.790Z,32.60
2019-04-20T18:32:29.858Z,32.70
2019-04-20T18:35:03.402Z,32.80
2019-04-20T18:37:36.331Z,32.80
2019-04-20T18:40:11.430Z,33.00
2019-04-20T18:42:43.836Z,33.20
2019-04-20T18:45:26.701Z,33.60
2019-04-20T18:48:02.716Z,34.00
2019-04-20T18:50:22.885Z,34.50
2019-04-20T18:52:47.666Z,34.90
2019-04-20T18:55:29.327Z,35.10
2019-04-20T18:57:51.033Z,35.20
2019-04-20T19:00:27.104Z,35.40
2019-04-20T19:02:56.049Z,35.60
2019-04-20T19:05:24.415Z,35.70
2019-04-20T19:08:00.930Z,36.00
2019-04-20T19:10:29.607Z,36.10
2019-04-20T19:13:01.629Z,36.30
2019-04-20T19:15:51.188Z,36.40
2019-04-20T19:18:23.883Z,36.60
2019-04-20T19:20:43.212Z,36.60
2019-04-20T19:23:12.709Z,36.90
2019-04-20T19:25:45.774Z,37.20
2019-04-20T19:28:21.623Z,37.30
2019-04-20T19:30:59.972Z,37.40
2019-04-20T19:33:30.907Z,37.10
2019-04-20T19:35:57.459Z,37.10
2019-04-20T19:38:24.489Z,37.40
2019-04-20T19:41:01.941Z,37.70
2019-04-20T19:43:31.059Z,38.10
2019-04-20T19:46:35.516Z,38.50
2019-04-20T19:48:39.643Z,38.80
2019-04-20T19:51:17.384Z,39.30
2019-04-20T19:53:48.176Z,39.70
2019-04-20T19:56:10.753Z,39.90
2019-04-20T19:58:49.688Z,40.20
2019-04-20T20:01:37.860Z,40.30
2019-04-20T20:04:11.764Z,40.50
2019-04-20T20:06:47.982Z,40.60
2019-04-20T20:09:17.815Z,40.90
2019-04-20T20:11:48.541Z,41.00
2019-04-20T20:14:31.950Z,41.20
2019-04-20T20:17:08.455Z,41.50
2019-04-20T20:19:38.498Z,41.80
2019-04-20T20:22:06.667Z,42.00
2019-04-20T20:24:25.407Z,42.30
2019-04-20T20:27:00.459Z,42.60
2019-04-20T20:29:34.265Z,42.70
2019-04-20T20:32:10.355Z,42.90
2019-04-20T20:34:36.364Z,43.10
2019-04-20T20:37:04.215Z,43.50
2019-04-20T20:39:33.045Z,43.80
2019-04-20T20:42:15.245Z,44.20
2019-04-20T20:44:44.072Z,44.20
2019-04-20T20:47:31.734Z,44.80
2019-04-20T20:50:08.739Z,44.20
2019-04-20T20:52:29.136Z,44.30
2019-04-20T20:55:00.779Z,44.40
2019-04-20T20:57:24.277Z,44.50
2019-04-20T21:00:00.455Z,44.50
2019-04-20T21:02:40.110Z,44.70
2019-04-20T21:04:55.900Z,44.70
2019-04-20T21:07:26.606Z,44.80
2019-04-20T21:09:58.687Z,44.80
2019-04-20T21:12:30.581Z,44.80
2019-04-20T21:15:08.830Z,44.40
2019-04-20T21:17:47.519Z,44.70
2019-04-20T21:20:20.438Z,45.10
2019-04-20T21:22:58.726Z,45.40
2019-04-20T21:25:21.158Z,45.70
2019-04-20T21:27:52.873Z,45.40
2019-04-20T21:30:30.008Z,45.10
2019-04-20T21:33:01.781Z,45.10
2019-04-20T21:35:31.361Z,45.30
2019-04-20T21:38:05.465Z,45.40
2019-04-20T21:40:36.268Z,45.50
2019-04-20T21:43:06.812Z,45.70
2019-04-20T21:45:37.420Z,45.90
2019-04-20T21:48:29.823Z,46.10
2019-04-20T21:50:58.612Z,45.90
2019-04-20T21:53:19.609Z,45.80
2019-04-20T21:55:46.032Z,45.90
2019-04-20T21:58:19.400Z,45.80
2019-04-20T22:01:07.135Z,45.60
2019-04-20T22:03:24.681Z,45.70
2019-04-20T22:06:07.010Z,45.80
2019-04-20T22:08:39.477Z,46.10
2019-04-20T22:11:08.256Z,45.80
2019-04-20T22:13:41.645Z,46.00
2019-04-20T22:16:10.999Z,46.00
2019-04-20T22:18:54.406Z,46.00
2019-04-20T22:21:21.424Z,46.50
2019-04-20T22:24:01.829Z,47.20
2019-04-20T22:26:26.302Z,46.20
2019-04-20T22:28:50.109Z,46.30
2019-04-20T22:31:22.149Z,46.50
2019-04-20T22:33:54.423Z,46.50
2019-04-20T22:36:31.922Z,46.40
2019-04-20T22:39:09.527Z,46.70
2019-04-20T22:41:45.755Z,47.00
2019-04-20T22:44:20.283Z,47.30
2019-04-20T22:46:46.157Z,47.60
2019-04-20T22:49:36.320Z,47.60
2019-04-20T22:51:58.208Z,47.70
2019-04-20T22:54:36.415Z,47.80
2019-04-20T22:57:03.520Z,47.80
2019-04-20T22:59:40.479Z,47.80
2019-04-20T23:02:01.115Z,47.90
2019-04-20T23:04:31.018Z,47.70
2019-04-20T23:07:00.902Z,47.70
2019-04-20T23:09:34.211Z,48.50
2019-04-20T23:12:08.079Z,47.90
2019-04-20T23:14:34.316Z,47.70
2019-04-20T23:17:04.273Z,47.50
2019-04-20T23:19:43.694Z,47.30
2019-04-20T23:22:11.678Z,47.70
2019-04-20T23:24:39.421Z,47.50
2019-04-20T23:27:13.921Z,47.70
2019-04-20T23:29:44.886Z,47.80
2019-04-20T23:32:14.531Z,47.70
2019-04-20T23:34:44.770Z,47.40
2019-04-20T23:37:20.110Z,47.40
2019-04-20T23:39:49.196Z,47.20
2019-04-20T23:42:19.840Z,47.20
2019-04-20T23:45:02.198Z,47.00
2019-04-20T23:47:34.193Z,46.90
2019-04-20T23:50:19.190Z,47.00
2019-04-20T23:52:59.665Z,46.80
2019-04-20T23:55:15.744Z,47.00
2019-04-20T23:57:46.028Z,46.90
